Time;durP1;ratioP1;P1;durP2;ratioP2;P2;SDS_P1;SDS_P2;PMS_P1;PMS_P2;Temp;Humidity;BMP_temperature;BMP_pressure;BME280_temperature;BME280_humidity;BME280_pressure;Samples;Min_cycle;Max_cycle;Signal;HPM_P1;HPM_P2
2022/03/14 00:00:43;;;;;;;;;;;8.90;59.20;;;;;;5135613;27;19953;-70
2022/03/14 00:03:10;;;;;;;;;;;8.40;59.30;;;;;;5117522;27;19924;-70
2022/03/14 00:05:35;;;;;;;;;;;8.30;59.00;;;;;;5135475;27;20062;-69
2022/03/14 00:08:01;;;;;;;;;;;8.30;59.00;;;;;;5135332;27;19923;-71
2022/03/14 00:10:27;;;;;;;;;;;8.30;59.20;;;;;;5134733;27;19924;-71
2022/03/14 00:12:55;;;;;;;;;;;8.30;59.40;;;;;;5135512;27;19968;-72
2022/03/14 00:15:21;;;;;;;;;;;8.30;59.50;;;;;;5151761;27;20394;-70
2022/03/14 00:17:49;;;;;;;;;;;8.30;59.70;;;;;;5151656;27;19924;-72
2022/03/14 00:20:15;;;;;;;;;;;8.30;59.40;;;;;;5135237;27;19923;-69
2022/03/14 00:22:41;;;;;;;;;;;8.30;59.60;;;;;;5135047;27;19924;-69
2022/03/14 00:25:08;;;;;;;;;;;8.30;59.70;;;;;;5134946;27;19924;-69
2022/03/14 00:27:35;;;;;;;;;;;8.30;59.90;;;;;;5135202;27;19930;-72
2022/03/14 00:30:05;;;;;;;;;;;8.30;59.80;;;;;;5135105;27;19976;-72
2022/03/14 00:32:31;;;;;;;;;;;8.40;59.80;;;;;;5135002;27;19923;-70
2022/03/14 00:34:56;;;;;;;;;;;8.40;59.90;;;;;;5134811;27;19927;-69
2022/03/14 00:37:22;;;;;;;;;;;8.40;60.00;;;;;;5134973;27;19924;-70
2022/03/14 00:39:48;;;;;;;;;;;9.00;60.40;;;;;;5134671;27;20045;-69
2022/03/14 00:42:15;;;;;;;;;;;8.40;60.40;;;;;;5116984;27;19927;-70
2022/03/14 00:44:43;;;;;;;;;;;8.50;60.60;;;;;;5116674;27;19930;-69
2022/03/14 00:47:09;;;;;;;;;;;8.40;60.50;;;;;;5116549;28;19973;-71
2022/03/14 00:49:35;;;;;;;;;;;8.50;60.60;;;;;;5134795;27;20010;-70
2022/03/14 00:52:00;;;;;;;;;;;8.50;61.00;;;;;;5134806;27;20039;-71
2022/03/14 00:54:26;;;;;;;;;;;8.40;61.00;;;;;;5116551;27;19927;-70
2022/03/14 00:56:51;;;;;;;;;;;8.50;61.10;;;;;;5134843;27;20374;-69
2022/03/14 00:59:17;;;;;;;;;;;9.70;62.10;;;;;;5116704;28;19924;-74
2022/03/14 01:01:43;;;;;;;;;;;8.50;61.70;;;;;;5116420;28;19979;-70
2022/03/14 01:04:09;;;;;;;;;;;8.60;62.00;;;;;;5134752;28;19923;-69
2022/03/14 01:06:35;;;;;;;;;;;8.40;62.40;;;;;;5135060;28;19923;-69
2022/03/14 01:09:00;;;;;;;;;;;8.60;62.50;;;;;;5134461;28;20271;-70
2022/03/14 01:11:26;;;;;;;;;;;8.50;62.70;;;;;;5116606;28;20382;-70
2022/03/14 01:13:52;;;;;;;;;;;8.30;63.20;;;;;;5134732;28;19924;-71
2022/03/14 01:16:18;;;;;;;;;;;8.30;63.70;;;;;;5151008;27;20267;-69
2022/03/14 01:18:43;;;;;;;;;;;8.70;64.10;;;;;;5134613;28;19923;-70
2022/03/14 01:21:09;;;;;;;;;;;8.20;64.10;;;;;;5150550;27;19931;-70
2022/03/14 01:23:34;;;;;;;;;;;8.20;65.10;;;;;;5138453;27;19923;-69
2022/03/14 01:26:00;;;;;;;;;;;8.20;66.20;;;;;;5138367;27;19923;-69
2022/03/14 01:28:25;;;;;;;;;;;8.10;67.10;;;;;;5138730;27;20298;-70
2022/03/14 01:30:51;;;;;;;;;;;8.30;68.30;;;;;;5138587;27;20024;-69
2022/03/14 01:33:17;;;;;;;;;;;8.00;69.30;;;;;;5138479;27;19930;-69
2022/03/14 01:35:42;;;;;;;;;;;8.00;71.50;;;;;;5138493;27;19931;-69
2022/03/14 01:38:08;;;;;;;;;;;8.00;74.00;;;;;;5138399;27;19930;-73
2022/03/14 01:40:34;;;;;;;;;;;8.00;76.50;;;;;;5138141;27;19937;-69
2022/03/14 01:42:59;;;;;;;;;;;8.00;79.60;;;;;;5138445;27;19978;-69
2022/03/14 01:45:25;;;;;;;;;;;8.00;84.20;;;;;;5138354;27;19986;-70
2022/03/14 01:47:51;;;;;;;;;;;8.00;86.60;;;;;;5138137;27;19931;-69
2022/03/14 01:50:17;;;;;;;;;;;8.00;90.50;;;;;;5138390;27;19923;-72
2022/03/14 01:52:44;;;;;;;;;;;8.80;93.10;;;;;;5138144;27;20347;-70
2022/03/14 01:55:10;;;;;;;;;;;8.00;93.30;;;;;;5138049;27;19930;-70
2022/03/14 01:57:36;;;;;;;;;;;8.20;95.60;;;;;;5119580;27;19947;-72
2022/03/14 02:00:02;;;;;;;;;;;8.00;98.10;;;;;;5119887;27;19975;-69
2022/03/14 02:02:28;;;;;;;;;;;8.00;98.80;;;;;;5137993;27;19924;-69
2022/03/14 02:04:54;;;;;;;;;;;8.00;99.80;;;;;;5138063;27;19923;-69
2022/03/14 02:07:20;;;;;;;;;;;8.00;99.90;;;;;;5102090;27;20298;-71
2022/03/14 02:09:46;;;;;;;;;;;8.20;99.90;;;;;;5137659;27;19976;-70
2022/03/14 02:12:12;;;;;;;;;;;8.00;99.90;;;;;;5137524;27;19927;-71
2022/03/14 02:14:40;;;;;;;;;;;8.00;99.90;;;;;;5119746;27;19930;-70
2022/03/14 02:17:07;;;;;;;;;;;8.00;99.90;;;;;;5119390;27;19927;-70
2022/03/14 02:19:33;;;;;;;;;;;8.30;99.90;;;;;;5137433;27;20401;-69
2022/03/14 02:21:58;;;;;;;;;;;8.00;99.90;;;;;;5118897;27;19924;-69
2022/03/14 02:24:28;;;;;;;;;;;8.00;99.90;;;;;;5137411;27;19923;-70
2022/03/14 02:26:54;;;;;;;;;;;8.00;99.90;;;;;;5118852;27;19924;-70
2022/03/14 02:29:20;;;;;;;;;;;8.60;99.90;;;;;;5153891;27;19983;-69
2022/03/14 02:31:46;;;;;;;;;;;8.20;99.90;;;;;;5137492;27;19924;-70
2022/03/14 02:34:12;;;;;;;;;;;8.00;99.90;;;;;;5136642;27;19923;-70
2022/03/14 02:36:39;;;;;;;;;;;8.00;99.90;;;;;;5119277;27;20467;-69
2022/03/14 02:39:05;;;;;;;;;;;7.50;99.90;;;;;;5137227;27;19930;-70
2022/03/14 02:41:32;;;;;;;;;;;8.10;99.90;;;;;;5118830;27;19923;-71
2022/03/14 02:43:58;;;;;;;;;;;8.10;99.90;;;;;;5137379;27;19954;-72
2022/03/14 02:46:24;;;;;;;;;;;8.40;99.90;;;;;;5137087;27;20320;-72
2022/03/14 02:48:49;;;;;;;;;;;8.10;99.90;;;;;;5137120;27;19923;-71
2022/03/14 02:51:15;;;;;;;;;;;8.10;99.90;;;;;;5136985;27;19924;-71
2022/03/14 02:53:40;;;;;;;;;;;8.10;99.90;;;;;;5136953;27;19923;-72
2022/03/14 02:56:06;;;;;;;;;;;8.10;99.90;;;;;;5118424;27;19928;-72
2022/03/14 02:58:32;;;;;;;;;;;8.40;99.90;;;;;;5136973;27;19928;-69
2022/03/14 03:00:59;;;;;;;;;;;8.20;99.90;;;;;;5136825;27;20020;-69
2022/03/14 03:03:27;;;;;;;;;;;8.80;99.90;;;;;;5136867;27;20275;-70
2022/03/14 03:05:53;;;;;;;;;;;8.20;99.90;;;;;;5118680;27;19970;-71
2022/03/14 03:08:21;;;;;;;;;;;7.70;99.90;;;;;;5136606;27;20438;-70
2022/03/14 03:10:48;;;;;;;;;;;9.70;99.90;;;;;;5136392;27;19930;-73
2022/03/14 03:13:13;;;;;;;;;;;8.30;99.90;;;;;;5136745;27;20279;-71
2022/03/14 03:15:39;;;;;;;;;;;8.30;99.90;;;;;;5136614;27;19930;-71
2022/03/14 03:18:05;;;;;;;;;;;8.30;99.90;;;;;;5136511;27;20113;-69
2022/03/14 03:20:31;;;;;;;;;;;8.40;99.90;;;;;;5118038;27;20320;-69
2022/03/14 03:22:56;;;;;;;;;;;8.40;99.90;;;;;;5136301;27;20018;-71
2022/03/14 03:25:22;;;;;;;;;;;8.40;99.90;;;;;;5152551;27;20401;-73
2022/03/14 03:27:48;;;;;;;;;;;8.90;99.90;;;;;;5136008;27;20025;-69
2022/03/14 03:30:13;;;;;;;;;;;8.90;99.90;;;;;;5101189;27;19931;-69
2022/03/14 03:32:39;;;;;;;;;;;8.50;99.90;;;;;;5136290;27;19923;-70
2022/03/14 03:35:05;;;;;;;;;;;8.50;99.90;;;;;;5136187;27;19930;-69
2022/03/14 03:37:30;;;;;;;;;;;8.50;99.90;;;;;;5136240;27;20324;-69
2022/03/14 03:39:56;;;;;;;;;;;8.50;99.90;;;;;;5135964;27;19927;-70
2022/03/14 03:42:21;;;;;;;;;;;8.50;99.90;;;;;;5135872;27;20290;-73
2022/03/14 03:44:47;;;;;;;;;;;8.50;99.90;;;;;;5135517;27;20362;-69
2022/03/14 03:47:12;;;;;;;;;;;9.10;99.90;;;;;;5151582;27;19923;-69
2022/03/14 03:49:38;;;;;;;;;;;8.50;99.90;;;;;;5135915;27;20033;-69
2022/03/14 03:52:04;;;;;;;;;;;8.50;99.90;;;;;;5117047;27;19923;-69
2022/03/14 03:54:30;;;;;;;;;;;8.50;99.90;;;;;;5135666;27;19923;-70
2022/03/14 03:56:55;;;;;;;;;;;8.50;99.90;;;;;;5135626;27;19928;-70
2022/03/14 03:59:21;;;;;;;;;;;8.40;99.90;;;;;;5135506;27;19970;-70
2022/03/14 04:01:47;;;;;;;;;;;8.60;99.90;;;;;;5135702;27;19924;-70
2022/03/14 04:04:13;;;;;;;;;;;9.10;99.90;;;;;;5135621;27;20289;-69
2022/03/14 04:06:39;;;;;;;;;;;9.40;99.90;;;;;;5117169;27;19923;-72
2022/03/14 04:09:06;;;;;;;;;;;7.30;99.90;;;;;;5135526;27;20362;-72
2022/03/14 04:11:31;;;;;;;;;;;8.40;99.90;;;;;;5135315;27;20293;-72
2022/03/14 04:13:59;;;;;;;;;;;8.40;99.90;;;;;;5116888;27;19923;-70
2022/03/14 04:16:28;;;;;;;;;;;8.40;99.90;;;;;;5117054;27;19948;-70
2022/03/14 04:18:53;;;;;;;;;;;8.40;99.90;;;;;;5135361;27;19927;-70
2022/03/14 04:21:20;;;;;;;;;;;8.80;99.90;;;;;;5135112;27;19931;-69
2022/03/14 04:23:46;;;;;;;;;;;8.60;99.90;;;;;;5135137;27;19924;-72
2022/03/14 04:26:11;;;;;;;;;;;8.30;99.90;;;;;;5134935;27;19924;-72
2022/03/14 04:28:39;;;;;;;;;;;8.30;99.90;;;;;;5151376;27;19930;-71
2022/03/14 04:31:06;;;;;;;;;;;8.80;99.90;;;;;;5135264;27;19923;-69
2022/03/14 04:33:32;;;;;;;;;;;8.30;99.90;;;;;;5117050;27;19923;-70
2022/03/14 04:35:58;;;;;;;;;;;8.30;99.90;;;;;;5135074;27;20351;-72
2022/03/14 04:38:27;;;;;;;;;;;8.00;99.90;;;;;;5134979;27;19927;-69
2022/03/14 04:40:53;;;;;;;;;;;8.30;99.90;;;;;;5134922;27;19924;-71
2022/03/14 04:43:20;;;;;;;;;;;8.20;99.90;;;;;;5134803;27;19923;-70
2022/03/14 04:45:47;;;;;;;;;;;8.20;99.90;;;;;;5116868;27;20027;-69
2022/03/14 04:48:12;;;;;;;;;;;8.20;99.90;;;;;;5134806;27;19930;-69
2022/03/14 04:50:39;;;;;;;;;;;9.10;99.90;;;;;;5134690;27;19923;-69
2022/03/14 04:53:06;;;;;;;;;;;8.20;99.90;;;;;;5116732;28;19923;-69
2022/03/14 04:55:31;;;;;;;;;;;9.20;99.90;;;;;;5134666;27;19927;-73
2022/03/14 04:57:57;;;;;;;;;;;8.40;99.90;;;;;;5134274;27;19923;-69
2022/03/14 05:00:23;;;;;;;;;;;8.20;99.90;;;;;;5116512;28;20022;-70
2022/03/14 05:02:49;;;;;;;;;;;8.30;99.90;;;;;;5134883;28;19923;-72
2022/03/14 05:05:14;;;;;;;;;;;8.40;99.90;;;;;;5116079;28;19957;-69
2022/03/14 05:07:40;;;;;;;;;;;8.20;99.90;;;;;;5134580;28;20005;-69
2022/03/14 05:10:10;;;;;;;;;;;8.20;99.90;;;;;;5134636;28;19928;-69
2022/03/14 05:12:36;;;;;;;;;;;8.20;99.90;;;;;;5134433;28;19923;-70
2022/03/14 05:15:02;;;;;;;;;;;8.70;99.90;;;;;;5134765;28;20393;-69
2022/03/14 05:17:30;;;;;;;;;;;8.20;99.90;;;;;;5150720;27;19923;-70
2022/03/14 05:19:56;;;;;;;;;;;8.20;99.90;;;;;;5134543;28;20047;-69
2022/03/14 05:22:22;;;;;;;;;;;8.90;99.90;;;;;;5134507;28;20419;-69
2022/03/14 05:24:47;;;;;;;;;;;8.20;99.90;;;;;;5134344;28;19930;-72
2022/03/14 05:27:13;;;;;;;;;;;8.20;99.90;;;;;;5134347;28;20290;-73
2022/03/14 05:29:38;;;;;;;;;;;8.20;99.90;;;;;;5134377;28;19928;-69
2022/03/14 05:32:04;;;;;;;;;;;8.20;99.90;;;;;;5134530;28;19927;-71
2022/03/14 05:34:31;;;;;;;;;;;8.20;99.90;;;;;;5134516;28;19949;-72
2022/03/14 05:36:58;;;;;;;;;;;6.80;99.90;;;;;;5134348;28;20331;-74
2022/03/14 05:39:23;;;;;;;;;;;8.10;99.90;;;;;;5150631;27;19966;-74
2022/03/14 05:41:49;;;;;;;;;;;9.00;99.90;;;;;;5134298;28;20365;-70
2022/03/14 05:44:14;;;;;;;;;;;8.10;99.90;;;;;;5115367;28;20026;-69
2022/03/14 05:46:40;;;;;;;;;;;8.10;99.90;;;;;;5134337;28;19923;-69
2022/03/14 05:49:06;;;;;;;;;;;8.00;99.90;;;;;;5134381;28;19927;-69
2022/03/14 05:51:36;;;;;;;;;;;8.00;99.90;;;;;;5134244;28;19976;-69
2022/03/14 05:54:02;;;;;;;;;;;8.00;99.90;;;;;;5134148;28;20391;-69
2022/03/14 05:56:28;;;;;;;;;;;8.00;99.90;;;;;;5116013;28;20010;-72
2022/03/14 05:58:54;;;;;;;;;;;8.00;99.90;;;;;;5133942;28;20443;-69
2022/03/14 06:01:22;;;;;;;;;;;7.90;99.90;;;;;;5134286;28;19930;-69
2022/03/14 06:03:52;;;;;;;;;;;7.90;99.90;;;;;;5133984;28;20410;-69
2022/03/14 06:06:18;;;;;;;;;;;7.90;99.90;;;;;;5133992;28;19961;-72
2022/03/14 06:08:43;;;;;;;;;;;7.90;99.90;;;;;;5134839;27;19923;-69
2022/03/14 06:11:09;;;;;;;;;;;7.90;99.90;;;;;;5119566;27;19923;-72
2022/03/14 06:13:35;;;;;;;;;;;9.10;99.90;;;;;;5137534;27;19923;-69
2022/03/14 06:16:01;;;;;;;;;;;7.90;99.90;;;;;;5119061;27;19924;-69
2022/03/14 06:18:29;;;;;;;;;;;8.10;99.90;;;;;;5137751;27;19984;-69
2022/03/14 06:20:55;;;;;;;;;;;7.80;99.90;;;;;;5137425;27;19924;-72
2022/03/14 06:23:20;;;;;;;;;;;9.40;99.90;;;;;;5137413;27;19931;-69
2022/03/14 06:25:46;;;;;;;;;;;8.20;99.90;;;;;;5137373;27;19927;-69
2022/03/14 06:28:12;;;;;;;;;;;7.80;99.90;;;;;;5136023;27;19923;-70
2022/03/14 06:30:37;;;;;;;;;;;7.80;99.90;;;;;;5137500;27;19927;-69
2022/03/14 06:33:03;;;;;;;;;;;8.60;99.90;;;;;;5153867;27;19930;-70
2022/03/14 06:35:28;;;;;;;;;;;8.50;99.90;;;;;;5137435;27;19966;-69
2022/03/14 06:37:54;;;;;;;;;;;7.80;99.90;;;;;;5137275;27;19923;-69
2022/03/14 06:40:21;;;;;;;;;;;8.50;99.90;;;;;;5118697;27;19977;-69
2022/03/14 06:42:51;;;;;;;;;;;8.50;99.90;;;;;;5118875;27;19961;-69
2022/03/14 06:45:26;;;;;;;;;;;7.80;99.90;;;;;;5137057;27;20286;-73
2022/03/14 06:47:52;;;;;;;;;;;7.80;99.90;;;;;;5137065;27;19948;-69
2022/03/14 06:50:18;;;;;;;;;;;7.80;99.90;;;;;;5118787;27;19938;-70
2022/03/14 06:52:43;;;;;;;;;;;7.80;99.90;;;;;;5137039;27;19923;-70
2022/03/14 06:55:11;;;;;;;;;;;7.80;99.90;;;;;;5136893;27;20263;-71
2022/03/14 06:57:37;;;;;;;;;;;7.90;99.90;;;;;;5152930;27;20390;-69
2022/03/14 07:00:03;;;;;;;;;;;8.30;99.90;;;;;;5118946;27;20007;-72
2022/03/14 07:02:29;;;;;;;;;;;7.80;99.90;;;;;;5118926;27;19986;-68
2022/03/14 07:04:55;;;;;;;;;;;8.00;99.90;;;;;;5118776;27;19971;-69
2022/03/14 07:07:20;;;;;;;;;;;7.40;99.90;;;;;;5136685;27;19929;-70
2022/03/14 07:09:46;;;;;;;;;;;7.80;99.90;;;;;;5136625;27;19923;-71
2022/03/14 07:12:12;;;;;;;;;;;7.90;99.90;;;;;;5136545;27;20448;-71
2022/03/14 07:14:38;;;;;;;;;;;8.00;99.90;;;;;;5136454;27;19970;-73
2022/03/14 07:17:03;;;;;;;;;;;7.80;99.90;;;;;;5136769;27;19977;-68
2022/03/14 07:19:29;;;;;;;;;;;6.60;99.90;;;;;;5136255;27;19923;-73
2022/03/14 07:21:55;;;;;;;;;;;7.90;99.90;;;;;;5136297;27;19924;-70
2022/03/14 07:24:20;;;;;;;;;;;7.90;99.90;;;;;;5152651;27;19966;-69
2022/03/14 07:26:46;;;;;;;;;;;7.50;99.90;;;;;;5117964;27;20442;-70
2022/03/14 07:29:11;;;;;;;;;;;8.40;99.90;;;;;;5136101;27;20022;-71
2022/03/14 07:31:37;;;;;;;;;;;7.90;99.90;;;;;;5136300;27;19923;-69
2022/03/14 07:34:04;;;;;;;;;;;8.50;99.90;;;;;;5136293;27;19978;-70
2022/03/14 07:36:29;;;;;;;;;;;7.90;99.90;;;;;;5136067;27;20014;-72
2022/03/14 07:38:56;;;;;;;;;;;7.90;99.90;;;;;;5136084;27;19973;-69
2022/03/14 07:41:25;;;;;;;;;;;7.90;99.90;;;;;;5135952;27;19968;-70
2022/03/14 07:43:50;;;;;;;;;;;7.90;99.90;;;;;;5117554;27;20412;-70
2022/03/14 07:46:16;;;;;;;;;;;7.90;99.90;;;;;;5136274;27;19973;-69
2022/03/14 07:48:41;;;;;;;;;;;7.90;99.90;;;;;;5135979;27;20290;-69
2022/03/14 07:51:08;;;;;;;;;;;7.90;99.90;;;;;;5135945;27;19953;-70
2022/03/14 07:53:34;;;;;;;;;;;7.90;99.90;;;;;;5135781;27;20378;-69
2022/03/14 07:55:59;;;;;;;;;;;7.90;99.90;;;;;;5135653;27;20010;-70
2022/03/14 07:58:25;;;;;;;;;;;7.90;99.90;;;;;;5151960;27;20199;-73
2022/03/14 08:00:50;;;;;;;;;;;8.10;99.90;;;;;;5135482;27;19973;-69
2022/03/14 08:03:17;;;;;;;;;;;8.60;99.90;;;;;;5117677;27;20024;-72
2022/03/14 08:05:44;;;;;;;;;;;7.90;99.90;;;;;;5135616;27;19923;-70
2022/03/14 08:08:09;;;;;;;;;;;7.90;99.90;;;;;;5135490;27;20332;-69
2022/03/14 08:10:41;;;;;;;;;;;7.90;99.90;;;;;;5135499;27;19923;-70
2022/03/14 08:13:07;;;;;;;;;;;8.20;99.90;;;;;;5151656;27;20397;-69
2022/03/14 08:15:33;;;;;;;;;;;8.90;99.90;;;;;;5135487;27;19938;-71
2022/03/14 08:17:59;;;;;;;;;;;8.00;99.90;;;;;;5135496;27;19924;-69
2022/03/14 08:20:26;;;;;;;;;;;8.00;99.90;;;;;;5135228;27;19974;-70
2022/03/14 08:22:53;;;;;;;;;;;8.00;99.90;;;;;;5135292;27;19924;-70
2022/03/14 08:25:19;;;;;;;;;;;8.90;99.90;;;;;;5135214;27;19923;-70
2022/03/14 08:27:44;;;;;;;;;;;8.00;99.90;;;;;;5135070;27;19978;-72
2022/03/14 08:30:10;;;;;;;;;;;8.00;99.90;;;;;;5134975;27;19992;-69
2022/03/14 08:32:37;;;;;;;;;;;9.00;99.90;;;;;;5134603;27;19931;-73
2022/03/14 08:35:07;;;;;;;;;;;8.10;99.90;;;;;;5117094;27;19931;-70
2022/03/14 08:37:36;;;;;;;;;;;8.10;99.90;;;;;;5135011;27;19927;-68
2022/03/14 08:40:03;;;;;;;;;;;8.10;99.90;;;;;;5134925;27;19923;-70
2022/03/14 08:42:29;;;;;;;;;;;8.10;99.90;;;;;;5134959;27;19923;-70
2022/03/14 08:44:54;;;;;;;;;;;8.20;99.90;;;;;;5116727;27;20412;-71
2022/03/14 08:47:20;;;;;;;;;;;8.10;99.90;;;;;;5134922;27;19923;-69
2022/03/14 08:49:45;;;;;;;;;;;8.20;99.90;;;;;;5134934;27;19927;-69
2022/03/14 08:52:11;;;;;;;;;;;8.20;99.90;;;;;;5134909;27;19923;-69
2022/03/14 08:54:37;;;;;;;;;;;8.20;99.90;;;;;;5134691;27;19923;-70
2022/03/14 08:57:02;;;;;;;;;;;8.20;99.90;;;;;;5134727;27;20382;-70
2022/03/14 08:59:28;;;;;;;;;;;8.20;99.90;;;;;;5134589;27;20363;-70
2022/03/14 09:01:54;;;;;;;;;;;8.30;99.90;;;;;;5116826;28;20021;-69
2022/03/14 09:04:19;;;;;;;;;;;8.30;99.90;;;;;;5134567;28;19924;-70
2022/03/14 09:06:45;;;;;;;;;;;9.00;99.90;;;;;;5151029;27;19923;-70
2022/03/14 09:09:11;;;;;;;;;;;8.30;99.90;;;;;;5134743;28;19924;-69
2022/03/14 09:11:38;;;;;;;;;;;8.50;99.90;;;;;;5134616;28;19966;-69
2022/03/14 09:14:03;;;;;;;;;;;8.30;99.90;;;;;;5134556;28;20012;-71
2022/03/14 09:16:29;;;;;;;;;;;8.30;99.90;;;;;;5150725;27;19979;-70
2022/03/14 09:18:55;;;;;;;;;;;8.30;99.90;;;;;;5134709;28;19930;-72
2022/03/14 09:21:20;;;;;;;;;;;8.30;99.90;;;;;;5134596;28;19930;-70
2022/03/14 09:23:47;;;;;;;;;;;8.40;99.90;;;;;;5134438;28;20275;-69
2022/03/14 09:26:12;;;;;;;;;;;8.40;99.90;;;;;;5134257;28;19923;-68
2022/03/14 09:28:44;;;;;;;;;;;9.20;99.90;;;;;;5116280;28;19923;-70
2022/03/14 09:31:11;;;;;;;;;;;9.20;99.90;;;;;;5134284;28;19924;-69
2022/03/14 09:33:36;;;;;;;;;;;8.40;99.90;;;;;;5116287;28;19934;-69
2022/03/14 09:36:02;;;;;;;;;;;8.40;99.90;;;;;;5134481;28;19924;-70
2022/03/14 09:38:29;;;;;;;;;;;8.40;99.90;;;;;;5134461;28;19978;-73
2022/03/14 09:40:55;;;;;;;;;;;8.40;99.90;;;;;;5134267;28;19923;-69
2022/03/14 09:43:23;;;;;;;;;;;9.30;99.90;;;;;;5136124;27;19923;-73
2022/03/14 09:45:49;;;;;;;;;;;8.50;99.90;;;;;;5138088;27;19930;-73
2022/03/14 09:48:15;;;;;;;;;;;8.50;99.90;;;;;;5119912;27;19923;-73
2022/03/14 09:50:41;;;;;;;;;;;8.40;99.90;;;;;;5138207;27;20371;-72
2022/03/14 09:53:09;;;;;;;;;;;8.50;99.90;;;;;;5138282;27;19924;-71
2022/03/14 09:55:40;;;;;;;;;;;8.60;99.90;;;;;;5138153;27;19923;-69
2022/03/14 09:58:09;;;;;;;;;;;8.60;99.90;;;;;;5138002;27;20012;-69
2022/03/14 10:00:35;;;;;;;;;;;8.60;99.90;;;;;;5138088;27;19927;-69
2022/03/14 10:03:03;;;;;;;;;;;8.60;99.90;;;;;;5138053;27;19923;-71
2022/03/14 10:05:29;;;;;;;;;;;8.60;99.90;;;;;;5138032;27;19923;-71
2022/03/14 10:07:55;;;;;;;;;;;7.50;99.90;;;;;;5137870;27;19924;-70
2022/03/14 10:10:21;;;;;;;;;;;8.70;99.90;;;;;;5119715;27;19930;-71
2022/03/14 10:12:53;;;;;;;;;;;8.90;99.90;;;;;;5137714;27;19927;-70
2022/03/14 10:15:19;;;;;;;;;;;8.90;99.90;;;;;;5137886;27;19923;-70
2022/03/14 10:17:44;;;;;;;;;;;10.10;99.90;;;;;;5137840;27;19923;-70
2022/03/14 10:20:10;;;;;;;;;;;8.80;99.90;;;;;;5119540;27;19946;-70
2022/03/14 10:22:39;;;;;;;;;;;8.80;99.90;;;;;;5137621;27;19989;-69
2022/03/14 10:25:09;;;;;;;;;;;8.80;99.90;;;;;;5137388;27;20267;-69
2022/03/14 10:27:37;;;;;;;;;;;8.80;99.90;;;;;;5137251;27;20027;-69
2022/03/14 10:30:04;;;;;;;;;;;9.40;99.90;;;;;;5137530;27;20006;-69
2022/03/14 10:32:30;;;;;;;;;;;8.80;99.90;;;;;;5137492;27;19923;-72
2022/03/14 10:35:00;;;;;;;;;;;8.80;99.90;;;;;;5119066;27;19923;-70
2022/03/14 10:37:27;;;;;;;;;;;8.80;99.90;;;;;;5137183;27;19923;-69
2022/03/14 10:40:04;;;;;;;;;;;8.80;99.90;;;;;;5153274;27;19923;-69
2022/03/14 10:42:50;;;;;;;;;;;8.90;99.90;;;;;;5137015;27;19924;-70
2022/03/14 10:45:19;;;;;;;;;;;8.80;99.90;;;;;;5118575;27;19967;-70
2022/03/14 10:47:52;;;;;;;;;;;8.80;99.90;;;;;;5137027;27;19981;-72
2022/03/14 10:50:31;;;;;;;;;;;8.90;99.90;;;;;;5137184;27;19923;-70
2022/03/14 10:53:07;;;;;;;;;;;8.90;99.90;;;;;;5118472;27;19934;-73
2022/03/14 10:55:34;;;;;;;;;;;8.90;99.90;;;;;;5135027;27;19931;-72
2022/03/14 10:58:06;;;;;;;;;;;9.30;99.90;;;;;;5136969;27;20386;-69
2022/03/14 11:00:49;;;;;;;;;;;9.00;99.90;;;;;;5152937;27;19923;-69
2022/03/14 11:03:23;;;;;;;;;;;9.00;99.90;;;;;;5136836;27;20039;-69
2022/03/14 11:05:49;;;;;;;;;;;9.00;99.90;;;;;;5136876;27;19923;-70
2022/03/14 11:08:44;;;;;;;;;;;9.10;99.90;;;;;;5136689;27;19930;-69
2022/03/14 11:11:10;;;;;;;;;;;9.10;99.90;;;;;;5093327;28;19973;-71
2022/03/14 11:13:37;;;;;;;;;;;9.00;99.90;;;;;;5093448;28;19928;-70
2022/03/14 11:16:03;;;;;;;;;;;9.00;99.90;;;;;;5093383;28;20023;-69
2022/03/14 11:18:29;;;;;;;;;;;9.10;99.90;;;;;;5093451;28;20371;-69
2022/03/14 11:20:55;;;;;;;;;;;9.00;99.90;;;;;;5092808;28;19924;-69
2022/03/14 11:23:22;;;;;;;;;;;8.90;99.90;;;;;;5076527;28;19924;-70
2022/03/14 11:25:48;;;;;;;;;;;9.20;99.90;;;;;;5076563;28;19924;-73
2022/03/14 11:28:20;;;;;;;;;;;9.40;99.90;;;;;;5093057;28;19968;-73
2022/03/14 11:30:56;;;;;;;;;;;8.80;99.90;;;;;;5093037;28;19924;-69
2022/03/14 11:33:22;;;;;;;;;;;8.80;99.90;;;;;;5093099;28;19924;-70
2022/03/14 11:35:49;;;;;;;;;;;8.70;99.90;;;;;;5092935;28;19924;-71
2022/03/14 11:38:15;;;;;;;;;;;8.70;99.90;;;;;;5092995;28;19934;-71
2022/03/14 11:40:41;;;;;;;;;;;8.70;99.90;;;;;;5092838;28;20006;-72
2022/03/14 11:43:06;;;;;;;;;;;8.70;99.90;;;;;;5092940;28;19928;-70
2022/03/14 11:45:34;;;;;;;;;;;8.70;99.90;;;;;;5076172;28;19936;-70
2022/03/14 11:48:00;;;;;;;;;;;8.80;99.90;;;;;;5087665;27;19924;-70
2022/03/14 11:50:25;;;;;;;;;;;8.70;99.90;;;;;;5118772;27;19931;-70
2022/03/14 11:52:51;;;;;;;;;;;9.00;99.90;;;;;;5136089;27;19923;-70
2022/03/14 11:55:21;;;;;;;;;;;8.80;99.90;;;;;;5152171;27;20374;-71
2022/03/14 11:57:47;;;;;;;;;;;8.80;99.90;;;;;;5135717;27;19927;-70
2022/03/14 12:00:24;;;;;;;;;;;8.80;99.90;;;;;;5135494;27;19931;-71
2022/03/14 12:02:50;;;;;;;;;;;8.80;99.90;;;;;;5117719;27;19930;-70
2022/03/14 12:05:22;;;;;;;;;;;9.00;99.90;;;;;;5117514;27;20464;-72
2022/03/14 12:07:48;;;;;;;;;;;8.70;99.90;;;;;;5150802;27;19925;-69
2022/03/14 12:10:28;;;;;;;;;;;8.70;99.90;;;;;;5117447;27;19931;-69
2022/03/14 12:12:54;;;;;;;;;;;8.80;99.90;;;;;;5135601;27;19924;-69
2022/03/14 12:15:38;;;;;;;;;;;8.80;99.90;;;;;;5135570;27;19930;-69
2022/03/14 12:18:22;;;;;;;;;;;8.80;99.90;;;;;;5135442;27;19968;-72
2022/03/14 12:20:51;;;;;;;;;;;8.80;99.90;;;;;;5113247;27;19931;-69
2022/03/14 12:23:26;;;;;;;;;;;8.80;99.90;;;;;;5096579;28;19928;-69
2022/03/14 12:25:52;;;;;;;;;;;8.80;99.90;;;;;;5114676;28;19930;-70
2022/03/14 12:28:29;;;;;;;;;;;8.80;99.90;;;;;;5130546;27;20022;-69
2022/03/14 12:31:08;;;;;;;;;;;8.80;99.90;;;;;;5096312;28;20462;-69
2022/03/14 12:33:35;;;;;;;;;;;8.80;99.90;;;;;;5114517;28;20018;-70
2022/03/14 12:36:33;;;;;;;;;;;8.80;99.90;;;;;;5114617;28;19928;-69
2022/03/14 12:39:04;;;;;;;;;;;8.80;99.90;;;;;;5031792;28;19925;-73
2022/03/14 12:41:30;;;;;;;;;;;8.90;99.90;;;;;;5031686;28;19957;-69
2022/03/14 12:43:57;;;;;;;;;;;8.90;99.90;;;;;;5031777;28;20422;-70
2022/03/14 12:46:23;;;;;;;;;;;9.30;99.90;;;;;;5031522;28;19925;-69
2022/03/14 12:48:52;;;;;;;;;;;9.00;99.90;;;;;;5031697;28;19994;-72
2022/03/14 12:51:25;;;;;;;;;;;8.90;99.90;;;;;;5015214;28;19979;-69
2022/03/14 12:53:51;;;;;;;;;;;8.90;99.90;;;;;;5015448;28;19925;-71
2022/03/14 12:56:18;;;;;;;;;;;8.90;99.90;;;;;;5031499;28;19936;-70
2022/03/14 12:59:04;;;;;;;;;;;9.60;99.90;;;;;;5031444;28;20420;-70
2022/03/14 13:01:31;;;;;;;;;;;9.00;99.90;;;;;;4991528;28;19971;-70
2022/03/14 13:03:57;;;;;;;;;;;9.00;99.90;;;;;;5031545;28;20035;-69
2022/03/14 13:06:29;;;;;;;;;;;9.00;99.90;;;;;;5031567;28;19983;-68
2022/03/14 13:08:55;;;;;;;;;;;9.10;99.90;;;;;;5031464;28;19983;-69
2022/03/14 13:11:21;;;;;;;;;;;9.00;99.90;;;;;;5031512;28;19976;-70
2022/03/14 13:13:46;;;;;;;;;;;9.10;99.90;;;;;;5030146;28;20317;-71
2022/03/14 13:16:18;;;;;;;;;;;9.00;99.90;;;;;;5096273;28;19923;-73
2022/03/14 13:18:48;;;;;;;;;;;9.00;99.90;;;;;;5116855;28;19928;-70
2022/03/14 13:21:16;;;;;;;;;;;9.00;99.90;;;;;;5118312;28;20324;-70
2022/03/14 13:23:42;;;;;;;;;;;9.00;99.90;;;;;;5117992;28;19947;-70
2022/03/14 13:26:07;;;;;;;;;;;9.00;99.90;;;;;;5099820;28;20366;-72
2022/03/14 13:28:34;;;;;;;;;;;9.00;99.90;;;;;;5099940;28;20408;-71
2022/03/14 13:31:01;;;;;;;;;;;9.00;99.90;;;;;;5118218;28;19931;-71
2022/03/14 13:33:28;;;;;;;;;;;9.00;99.90;;;;;;5100187;28;19928;-70
2022/03/14 13:35:57;;;;;;;;;;;9.40;99.90;;;;;;5117804;28;20389;-69
2022/03/14 13:38:29;;;;;;;;;;;9.00;99.90;;;;;;5133892;27;20065;-69
2022/03/14 13:40:57;;;;;;;;;;;9.00;99.90;;;;;;5117666;28;19924;-71
2022/03/14 13:43:23;;;;;;;;;;;9.00;99.90;;;;;;5118001;28;19969;-69
2022/03/14 13:45:49;;;;;;;;;;;9.20;99.90;;;;;;5099685;28;19924;-70
2022/03/14 13:48:21;;;;;;;;;;;9.00;99.90;;;;;;5117763;28;19924;-69
2022/03/14 13:50:47;;;;;;;;;;;9.00;99.90;;;;;;5118052;28;19989;-71
2022/03/14 13:53:22;;;;;;;;;;;9.00;99.90;;;;;;5082487;28;20398;-71
2022/03/14 13:55:54;;;;;;;;;;;9.10;99.90;;;;;;5117672;28;20006;-73
2022/03/14 13:58:26;;;;;;;;;;;9.10;99.90;;;;;;5117555;28;20018;-69
2022/03/14 14:00:53;;;;;;;;;;;9.10;99.90;;;;;;5117565;28;20384;-70
2022/03/14 14:03:22;;;;;;;;;;;9.10;99.90;;;;;;5117468;28;19930;-69
2022/03/14 14:05:47;;;;;;;;;;;9.10;99.90;;;;;;5117381;28;20011;-69
2022/03/14 14:08:28;;;;;;;;;;;9.10;99.90;;;;;;5117176;28;19979;-71
2022/03/14 14:10:53;;;;;;;;;;;10.00;99.90;;;;;;5117362;28;19924;-73
2022/03/14 14:13:19;;;;;;;;;;;9.20;99.90;;;;;;5117345;28;20007;-70
2022/03/14 14:15:49;;;;;;;;;;;9.20;99.90;;;;;;5098985;28;20383;-70
2022/03/14 14:18:16;;;;;;;;;;;9.30;99.90;;;;;;5098855;28;19924;-69
2022/03/14 14:20:42;;;;;;;;;;;9.30;99.90;;;;;;5101108;27;19924;-69
2022/03/14 14:23:12;;;;;;;;;;;9.40;99.90;;;;;;5137422;27;19976;-69
2022/03/14 14:25:43;;;;;;;;;;;9.40;99.90;;;;;;5119460;27;19931;-69
2022/03/14 14:28:11;;;;;;;;;;;10.00;99.90;;;;;;5118979;27;19972;-71
2022/03/14 14:30:37;;;;;;;;;;;9.50;99.90;;;;;;5136462;27;19999;-69